createdAt,value
2019-05-25T00:00:20.239Z,13.50
2019-05-25T00:02:55.850Z,13.50
2019-05-25T00:05:32.267Z,13.50
2019-05-25T00:08:08.272Z,13.50
2019-05-25T00:10:37.789Z,13.50
2019-05-25T00:13:13.629Z,13.50
2019-05-25T00:15:44.230Z,13.50
2019-05-25T00:18:19.837Z,13.50
2019-05-25T00:20:55.449Z,13.50
2019-05-25T00:23:24.895Z,13.50
2019-05-25T00:26:01.058Z,13.50
2019-05-25T00:28:30.578Z,13.40
2019-05-25T00:31:06.411Z,13.40
2019-05-25T00:33:35.847Z,13.40
2019-05-25T00:36:11.817Z,13.40
2019-05-25T00:38:41.264Z,13.50
2019-05-25T00:41:17.664Z,13.50
2019-05-25T00:43:54.039Z,13.50
2019-05-25T00:46:30.351Z,13.50
2019-05-25T00:49:06.632Z,13.50
2019-05-25T00:51:42.954Z,13.50
2019-05-25T00:54:27.389Z,13.50
2019-05-25T00:56:56.585Z,13.40
2019-05-25T00:59:33.073Z,13.50
2019-05-25T01:02:09.604Z,13.50
2019-05-25T01:04:39.054Z,13.50
2019-05-25T01:07:15.003Z,13.50
2019-05-25T01:09:44.479Z,13.50
2019-05-25T01:12:21.182Z,13.40
2019-05-25T01:14:51.720Z,13.50
2019-05-25T01:17:27.687Z,13.50
2019-05-25T01:20:04.260Z,13.50
2019-05-25T01:22:33.854Z,13.50
2019-05-25T01:25:09.968Z,13.50
2019-05-25T01:27:39.636Z,13.50
2019-05-25T01:30:17.767Z,13.30
2019-05-25T01:32:54.339Z,13.40
2019-05-25T01:35:23.803Z,13.40
2019-05-25T01:38:00.005Z,13.30
2019-05-25T01:40:29.530Z,13.30
2019-05-25T01:43:05.184Z,13.20
2019-05-25T01:45:41.420Z,13.10
2019-05-25T01:48:17.038Z,13.10
2019-05-25T01:50:46.501Z,13.00
2019-05-25T01:53:22.174Z,13.00
2019-05-25T01:55:57.873Z,13.00
2019-05-25T01:58:41.106Z,13.00
2019-05-25T02:01:10.632Z,13.00
2019-05-25T02:03:46.604Z,12.90
2019-05-25T02:06:16.109Z,12.90
2019-05-25T02:08:51.845Z,12.90
2019-05-25T02:11:21.365Z,12.90
2019-05-25T02:13:57.934Z,12.90
2019-05-25T02:16:27.543Z,12.90
2019-05-25T02:19:03.311Z,12.80
2019-05-25T02:21:32.767Z,12.80
2019-05-25T02:24:08.730Z,12.70
2019-05-25T02:26:38.200Z,12.70
2019-05-25T02:29:14.779Z,12.60
2019-05-25T02:31:44.306Z,12.60
2019-05-25T02:34:13.817Z,12.60
2019-05-25T02:36:50.262Z,12.50
2019-05-25T02:39:26.003Z,12.50
2019-05-25T02:42:02.557Z,12.40
2019-05-25T02:44:32.218Z,12.50
2019-05-25T02:47:08.565Z,12.50
2019-05-25T02:49:50.941Z,12.40
2019-05-25T02:52:27.158Z,12.40
2019-05-25T02:54:56.687Z,12.40
2019-05-25T02:57:32.435Z,12.40
2019-05-25T03:00:08.249Z,12.40
2019-05-25T03:02:44.646Z,12.30
2019-05-25T03:05:22.563Z,12.30
2019-05-25T03:07:53.318Z,12.30
2019-05-25T03:10:29.675Z,12.30
2019-05-25T03:13:02.808Z,12.30
2019-05-25T03:15:38.889Z,12.30
2019-05-25T03:18:08.479Z,12.30
2019-05-25T03:20:44.689Z,12.30
2019-05-25T03:23:14.230Z,12.30
2019-05-25T03:25:50.810Z,12.20
2019-05-25T03:28:20.380Z,12.20
2019-05-25T03:30:56.166Z,12.30
2019-05-25T03:33:25.677Z,12.20
2019-05-25T03:36:02.348Z,12.30
2019-05-25T03:38:31.791Z,12.40
2019-05-25T03:41:14.108Z,12.40
2019-05-25T03:43:43.556Z,12.40
2019-05-25T03:46:19.400Z,12.60
2019-05-25T03:48:48.859Z,12.60
2019-05-25T03:51:24.652Z,12.60
2019-05-25T03:54:00.454Z,12.60
2019-05-25T03:56:30.108Z,12.60
2019-05-25T03:59:12.577Z,12.70
2019-05-25T04:01:42.047Z,12.80
2019-05-25T04:04:18.726Z,12.80
2019-05-25T04:06:48.169Z,12.80
2019-05-25T04:09:24.576Z,12.80
2019-05-25T04:11:54.037Z,12.90
2019-05-25T04:14:30.078Z,13.00
2019-05-25T04:16:59.535Z,13.00
2019-05-25T04:19:35.145Z,13.10
2019-05-25T04:22:04.899Z,13.20
2019-05-25T04:24:41.394Z,13.30
2019-05-25T04:27:10.910Z,13.40
2019-05-25T04:29:47.059Z,13.50
2019-05-25T04:32:16.575Z,13.70
2019-05-25T04:34:53.007Z,13.70
2019-05-25T04:37:29.032Z,13.90
2019-05-25T04:40:04.987Z,13.90
2019-05-25T04:42:34.441Z,13.90
2019-05-25T04:45:12.461Z,13.90
2019-05-25T04:47:41.922Z,14.00
2019-05-25T04:50:18.133Z,14.10
2019-05-25T04:52:54.018Z,14.00
2019-05-25T04:55:30.015Z,14.00
2019-05-25T04:57:59.466Z,14.00
2019-05-25T05:00:41.825Z,14.10
2019-05-25T05:03:11.317Z,14.10
2019-05-25T05:05:40.873Z,14.10
2019-05-25T05:08:16.955Z,14.10
2019-05-25T05:10:46.464Z,14.10
2019-05-25T05:13:22.415Z,14.10
2019-05-25T05:15:58.034Z,14.00
2019-05-25T05:18:34.000Z,14.10
2019-05-25T05:21:03.704Z,14.30
2019-05-25T05:23:39.694Z,14.20
2019-05-25T05:26:09.133Z,14.40
2019-05-25T05:28:49.063Z,14.40
2019-05-25T05:31:23.650Z,14.50
2019-05-25T05:33:54.916Z,14.70
2019-05-25T05:36:25.670Z,14.90
2019-05-25T05:39:11.472Z,15.00
2019-05-25T05:41:47.800Z,15.50
2019-05-25T05:44:28.707Z,15.80
2019-05-25T05:47:10.293Z,15.90
2019-05-25T05:49:46.092Z,15.90
2019-05-25T05:52:20.161Z,16.00
2019-05-25T05:54:59.179Z,15.90
2019-05-25T05:57:28.657Z,15.70
2019-05-25T06:00:04.734Z,15.70
2019-05-25T06:02:41.338Z,15.70
2019-05-25T06:05:18.119Z,15.60
2019-05-25T06:07:47.562Z,15.20
2019-05-25T06:10:24.023Z,15.00
2019-05-25T06:13:00.053Z,15.10
2019-05-25T06:15:36.186Z,15.20
2019-05-25T06:18:05.874Z,15.50
2019-05-25T06:20:42.483Z,15.50
2019-05-25T06:23:12.626Z,15.70
2019-05-25T06:25:42.211Z,15.60
2019-05-25T06:28:22.277Z,15.90
2019-05-25T06:30:49.763Z,16.00
2019-05-25T06:33:25.823Z,16.00
2019-05-25T06:35:55.338Z,15.80
2019-05-25T06:38:31.098Z,15.60
2019-05-25T06:41:00.695Z,15.30
2019-05-25T06:43:30.284Z,15.30
2019-05-25T06:46:13.541Z,15.40
2019-05-25T06:48:49.323Z,15.50
2019-05-25T06:51:25.563Z,15.60
2019-05-25T06:54:01.397Z,15.80
2019-05-25T06:56:30.915Z,15.70
2019-05-25T06:59:07.138Z,15.80
2019-05-25T07:01:43.236Z,15.80
2019-05-25T07:04:25.306Z,16.00
2019-05-25T07:06:54.938Z,15.80
2019-05-25T07:09:30.904Z,15.70
2019-05-25T07:12:00.603Z,16.00
2019-05-25T07:14:36.711Z,15.80
2019-05-25T07:17:06.292Z,15.90
2019-05-25T07:19:41.908Z,16.30
2019-05-25T07:22:11.431Z,16.60
2019-05-25T07:24:40.899Z,16.90
2019-05-25T07:27:16.979Z,16.90
2019-05-25T07:29:46.507Z,16.80
2019-05-25T07:32:22.363Z,17.00
2019-05-25T07:34:51.958Z,17.00
2019-05-25T07:37:28.477Z,16.70
2019-05-25T07:39:58.018Z,16.60
2019-05-25T07:42:34.705Z,16.70
2019-05-25T07:45:17.624Z,16.70
2019-05-25T07:47:47.145Z,16.70
2019-05-25T07:50:17.406Z,16.60
2019-05-25T07:52:53.604Z,16.50
2019-05-25T07:55:23.051Z,16.30
2019-05-25T07:58:15.916Z,16.30
2019-05-25T08:00:36.953Z,16.30
2019-05-25T08:03:13.217Z,16.50
2019-05-25T08:05:55.371Z,16.30
2019-05-25T08:08:31.368Z,16.10
2019-05-25T08:11:00.829Z,16.20
2019-05-25T08:13:30.270Z,16.20
2019-05-25T08:16:06.715Z,16.30
2019-05-25T08:18:36.244Z,16.30
2019-05-25T08:21:12.349Z,16.30
2019-05-25T08:23:41.870Z,16.10
2019-05-25T08:26:18.206Z,16.00
2019-05-25T08:28:47.737Z,16.10
2019-05-25T08:31:24.160Z,16.30
2019-05-25T08:33:53.690Z,16.30
2019-05-25T08:36:30.010Z,16.00
2019-05-25T08:39:06.271Z,16.00
2019-05-25T08:41:35.789Z,16.10
2019-05-25T08:44:11.600Z,16.30
2019-05-25T08:46:47.240Z,16.30
2019-05-25T08:49:23.889Z,16.60
2019-05-25T08:51:55.006Z,16.60
2019-05-25T08:54:31.195Z,16.30
2019-05-25T08:57:06.890Z,16.20
2019-05-25T08:59:43.453Z,16.40
2019-05-25T09:02:13.123Z,16.20
2019-05-25T09:04:56.201Z,16.10
2019-05-25T09:07:25.665Z,16.10
2019-05-25T09:09:55.190Z,16.20
2019-05-25T09:12:31.819Z,16.30
2019-05-25T09:15:01.350Z,16.40
2019-05-25T09:17:37.693Z,16.40
2019-05-25T09:20:16.097Z,16.30
2019-05-25T09:22:45.554Z,16.30
2019-05-25T09:25:15.422Z,16.20
2019-05-25T09:27:51.646Z,16.30
2019-05-25T09:30:21.338Z,16.20
2019-05-25T09:32:57.699Z,16.00
2019-05-25T09:35:33.329Z,16.00
2019-05-25T09:38:02.854Z,16.30
2019-05-25T09:40:38.650Z,16.00
2019-05-25T09:43:08.169Z,16.10
2019-05-25T09:45:50.346Z,16.10
2019-05-25T09:48:19.869Z,16.30
2019-05-25T09:50:55.489Z,16.30
2019-05-25T09:53:26.569Z,16.30
2019-05-25T09:56:02.708Z,16.30
2019-05-25T09:58:32.340Z,16.30
2019-05-25T10:01:08.964Z,16.40
2019-05-25T10:03:44.990Z,16.20
2019-05-25T10:06:21.023Z,16.00
2019-05-25T10:08:57.539Z,15.80
2019-05-25T10:11:27.087Z,15.70
2019-05-25T10:14:03.447Z,15.80
2019-05-25T10:16:33.035Z,15.70
2019-05-25T10:19:13.110Z,15.90
2019-05-25T10:21:42.570Z,16.00
2019-05-25T10:24:18.882Z,15.80
2019-05-25T10:26:48.344Z,15.80
2019-05-25T10:29:36.736Z,15.70
2019-05-25T10:31:55.758Z,15.70
2019-05-25T10:34:32.078Z,15.80
2019-05-25T10:37:08.493Z,15.90
2019-05-25T10:39:38.094Z,16.30
2019-05-25T10:42:14.287Z,16.40
2019-05-25T10:44:50.826Z,16.20
2019-05-25T10:47:33.557Z,16.10
2019-05-25T10:50:11.031Z,16.20
2019-05-25T10:52:40.633Z,16.20
2019-05-25T10:55:18.031Z,16.40
2019-05-25T10:57:53.832Z,16.50
2019-05-25T11:00:30.206Z,16.50
2019-05-25T11:03:06.388Z,16.60
2019-05-25T11:05:41.985Z,16.70
2019-05-25T11:08:24.923Z,16.60
2019-05-25T11:10:54.596Z,16.50
2019-05-25T11:13:30.186Z,16.40
2019-05-25T11:16:06.283Z,16.60
2019-05-25T11:18:35.883Z,16.70
2019-05-25T11:21:12.182Z,16.70
2019-05-25T11:23:48.432Z,16.80
2019-05-25T11:26:17.960Z,16.40
2019-05-25T11:28:53.897Z,16.60
2019-05-25T11:31:30.391Z,17.00
2019-05-25T11:34:00.087Z,17.10
2019-05-25T11:36:37.260Z,17.10
2019-05-25T11:39:16.145Z,16.90
2019-05-25T11:41:52.863Z,16.90
2019-05-25T11:44:22.422Z,17.00
2019-05-25T11:46:58.616Z,16.80
2019-05-25T11:49:28.101Z,16.90
2019-05-25T11:52:04.666Z,17.00
2019-05-25T11:54:34.347Z,16.60
2019-05-25T11:57:03.938Z,16.80
2019-05-25T11:59:40.286Z,16.90
2019-05-25T12:02:16.575Z,17.10
2019-05-25T12:04:53.272Z,17.20
2019-05-25T12:07:29.157Z,17.30
2019-05-25T12:10:14.099Z,17.30
2019-05-25T12:12:43.715Z,17.20
2019-05-25T12:15:21.768Z,17.40
2019-05-25T12:17:51.306Z,17.30
2019-05-25T12:20:27.663Z,17.50
2019-05-25T12:22:57.179Z,17.50
2019-05-25T12:25:33.341Z,17.70
2019-05-25T12:28:09.836Z,17.80
2019-05-25T12:30:45.922Z,17.40
2019-05-25T12:33:15.588Z,17.50
2019-05-25T12:35:45.364Z,17.20
2019-05-25T12:38:21.406Z,17.10
2019-05-25T12:40:53.969Z,16.90
2019-05-25T12:43:28.769Z,17.10
2019-05-25T12:46:11.091Z,17.10
2019-05-25T12:48:40.625Z,17.10
2019-05-25T12:51:17.967Z,17.20
2019-05-25T12:53:47.598Z,17.30
2019-05-25T12:56:23.230Z,17.50
2019-05-25T12:58:59.140Z,17.50
2019-05-25T13:01:35.696Z,17.30
2019-05-25T13:04:12.305Z,17.40
2019-05-25T13:06:48.171Z,17.40
2019-05-25T13:09:31.203Z,17.30
2019-05-25T13:12:07.795Z,17.30
2019-05-25T13:14:44.278Z,17.00
2019-05-25T13:17:13.723Z,16.70
2019-05-25T13:19:49.474Z,16.70
2019-05-25T13:22:18.938Z,16.70
2019-05-25T13:24:54.989Z,16.60
2019-05-25T13:27:31.609Z,16.60
2019-05-25T13:30:08.217Z,16.60
2019-05-25T13:32:37.742Z,16.80
2019-05-25T13:35:15.735Z,17.00
2019-05-25T13:37:45.235Z,17.20
2019-05-25T13:40:21.400Z,17.00
2019-05-25T13:42:50.857Z,16.80
2019-05-25T13:45:27.115Z,16.80
2019-05-25T13:47:56.642Z,16.50
2019-05-25T13:50:33.504Z,16.80
2019-05-25T13:53:02.973Z,16.80
2019-05-25T13:55:38.588Z,16.70
2019-05-25T13:58:15.151Z,16.90
2019-05-25T14:00:44.696Z,16.90
2019-05-25T14:03:27.897Z,17.20
2019-05-25T14:05:57.424Z,17.30
2019-05-25T14:08:40.185Z,17.20
2019-05-25T14:11:23.113Z,17.30
2019-05-25T14:13:52.808Z,17.10
2019-05-25T14:16:28.824Z,17.20
2019-05-25T14:18:58.283Z,17.00
2019-05-25T14:21:27.743Z,17.10
2019-05-25T14:24:03.845Z,16.90
2019-05-25T14:26:33.385Z,16.90
2019-05-25T14:29:09.351Z,17.00
2019-05-25T14:31:45.520Z,17.10
2019-05-25T14:34:09.903Z,17.40
2019-05-25T14:36:46.340Z,17.30
2019-05-25T14:39:15.936Z,17.40
2019-05-25T14:41:52.298Z,17.30
2019-05-25T14:44:21.819Z,17.30
2019-05-25T14:46:58.290Z,17.10
2019-05-25T14:49:27.808Z,17.10
2019-05-25T14:52:03.460Z,17.00
2019-05-25T14:54:33.020Z,16.90
2019-05-25T14:57:15.791Z,16.80
2019-05-25T14:59:46.860Z,16.80
2019-05-25T15:02:16.464Z,16.80
2019-05-25T15:04:52.570Z,16.70
2019-05-25T15:07:28.799Z,17.00
2019-05-25T15:10:04.585Z,16.90
2019-05-25T15:12:47.623Z,16.90
2019-05-25T15:15:17.296Z,16.70
2019-05-25T15:17:53.940Z,16.60
2019-05-25T15:20:23.630Z,16.70
2019-05-25T15:22:59.336Z,16.60
2019-05-25T15:25:35.085Z,16.70
2019-05-25T15:28:04.676Z,16.70
2019-05-25T15:30:34.371Z,16.50
2019-05-25T15:33:10.517Z,16.50
2019-05-25T15:35:47.000Z,16.40
2019-05-25T15:38:23.537Z,16.40
2019-05-25T15:40:53.077Z,16.60
2019-05-25T15:43:29.061Z,16.60
2019-05-25T15:46:11.859Z,16.60
2019-05-25T15:48:41.329Z,16.50
2019-05-25T15:51:17.085Z,16.50
2019-05-25T15:53:53.519Z,16.40
2019-05-25T15:56:23.072Z,16.40
2019-05-25T15:58:58.703Z,16.50
2019-05-25T16:01:28.224Z,16.60
2019-05-25T16:04:03.954Z,16.60
2019-05-25T16:06:39.672Z,16.50
2019-05-25T16:09:09.553Z,16.60
2019-05-25T16:11:52.530Z,16.30
2019-05-25T16:14:22.063Z,16.20
2019-05-25T16:16:58.232Z,16.10
2019-05-25T16:19:27.839Z,16.10
2019-05-25T16:22:04.346Z,16.10
2019-05-25T16:24:33.884Z,15.90
2019-05-25T16:27:09.934Z,16.00
2019-05-25T16:29:46.598Z,16.00
2019-05-25T16:32:16.070Z,15.70
2019-05-25T16:34:51.693Z,15.80
2019-05-25T16:37:21.490Z,15.60
2019-05-25T16:40:04.431Z,15.50
2019-05-25T16:42:40.855Z,15.50
2019-05-25T16:45:17.891Z,15.50
2019-05-25T16:47:53.645Z,15.50
2019-05-25T16:50:30.294Z,15.50
2019-05-25T16:53:06.342Z,15.40
2019-05-25T16:55:35.869Z,15.50
2019-05-25T16:58:11.952Z,15.60
2019-05-25T17:00:47.767Z,15.60
2019-05-25T17:03:28.686Z,15.50
2019-05-25T17:05:55.067Z,15.50
2019-05-25T17:08:24.647Z,15.40
2019-05-25T17:11:01.094Z,15.30
2019-05-25T17:13:44.314Z,15.20
2019-05-25T17:16:13.784Z,15.00
2019-05-25T17:18:43.349Z,15.00
2019-05-25T17:21:19.736Z,15.00
2019-05-25T17:23:50.745Z,15.00
2019-05-25T17:26:27.104Z,15.00
2019-05-25T17:28:56.710Z,15.00
2019-05-25T17:31:33.003Z,15.00
2019-05-25T17:34:02.608Z,15.00
2019-05-25T17:36:39.337Z,15.00
2019-05-25T17:39:15.638Z,15.10
2019-05-25T17:41:52.193Z,15.00
2019-05-25T17:44:28.282Z,15.00
2019-05-25T17:46:57.869Z,14.90
2019-05-25T17:49:34.373Z,14.90
2019-05-25T17:52:03.976Z,14.90
2019-05-25T17:54:40.899Z,14.80
2019-05-25T17:57:11.745Z,14.80
2019-05-25T17:59:48.061Z,14.90
2019-05-25T18:02:26.363Z,14.90
2019-05-25T18:05:02.006Z,14.90
2019-05-25T18:07:31.612Z,15.00
2019-05-25T18:10:07.387Z,14.90
2019-05-25T18:12:46.957Z,15.00
2019-05-25T18:15:22.066Z,14.90
2019-05-25T18:17:51.702Z,14.90
2019-05-25T18:20:28.103Z,14.90
2019-05-25T18:22:57.701Z,15.00
2019-05-25T18:25:33.952Z,14.90
2019-05-25T18:28:03.630Z,15.00
2019-05-25T18:30:39.599Z,15.00
2019-05-25T18:33:09.272Z,15.00
2019-05-25T18:35:38.827Z,14.90
2019-05-25T18:38:14.791Z,14.90
2019-05-25T18:40:44.530Z,14.90
2019-05-25T18:43:21.913Z,14.70
2019-05-25T18:45:51.425Z,14.60
2019-05-25T18:48:34.934Z,14.50
2019-05-25T18:51:04.604Z,14.50
2019-05-25T18:53:34.292Z,14.40
2019-05-25T18:56:10.991Z,14.40
2019-05-25T18:58:42.153Z,14.50
2019-05-25T19:01:18.435Z,14.40
2019-05-25T19:03:55.093Z,14.40
2019-05-25T19:06:24.617Z,14.30
2019-05-25T19:09:02.012Z,14.30
2019-05-25T19:11:45.962Z,14.30
2019-05-25T19:14:28.656Z,14.30
2019-05-25T19:17:05.149Z,14.40
2019-05-25T19:19:42.861Z,14.40
2019-05-25T19:22:12.586Z,14.30
2019-05-25T19:24:42.252Z,14.30
2019-05-25T19:27:18.276Z,14.40
2019-05-25T19:29:54.895Z,14.30
2019-05-25T19:32:25.008Z,14.30
2019-05-25T19:34:59.394Z,14.20
2019-05-25T19:37:32.532Z,14.10
2019-05-25T19:40:08.630Z,14.00
2019-05-25T19:42:40.468Z,13.90
2019-05-25T19:45:11.229Z,13.70
2019-05-25T19:47:47.668Z,13.70
2019-05-25T19:50:17.467Z,13.70
2019-05-25T19:52:53.773Z,13.80
2019-05-25T19:55:23.457Z,13.70
2019-05-25T19:57:59.235Z,13.70
2019-05-25T20:00:28.986Z,13.60
2019-05-25T20:03:05.716Z,13.60
2019-05-25T20:05:35.478Z,13.50
2019-05-25T20:08:18.246Z,13.60
2019-05-25T20:10:47.935Z,13.60
2019-05-25T20:13:24.496Z,13.60
2019-05-25T20:16:07.575Z,13.60
2019-05-25T20:18:44.053Z,13.60
2019-05-25T20:21:13.704Z,13.60
2019-05-25T20:23:51.977Z,13.60
2019-05-25T20:26:23.190Z,13.60
2019-05-25T20:28:52.796Z,13.60
2019-05-25T20:31:28.625Z,13.70
2019-05-25T20:33:59.980Z,13.70
2019-05-25T20:36:36.112Z,13.50
2019-05-25T20:39:07.894Z,13.60
2019-05-25T20:41:44.836Z,13.60
2019-05-25T20:44:14.509Z,13.60
2019-05-25T20:46:51.254Z,13.60
2019-05-25T20:49:27.699Z,13.60
2019-05-25T20:52:03.927Z,13.60
2019-05-25T20:54:33.465Z,13.60
2019-05-25T20:57:09.479Z,13.60
2019-05-25T20:59:39.143Z,13.70
2019-05-25T21:02:15.408Z,13.60
2019-05-25T21:04:44.865Z,13.50
2019-05-25T21:07:21.284Z,13.40
2019-05-25T21:09:50.977Z,13.40
2019-05-25T21:12:27.500Z,13.50
2019-05-25T21:15:07.500Z,13.50
2019-05-25T21:17:50.418Z,13.40
2019-05-25T21:20:20.099Z,13.40
2019-05-25T21:22:55.822Z,13.50
2019-05-25T21:25:25.571Z,13.50
2019-05-25T21:27:55.107Z,13.50
2019-05-25T21:30:31.311Z,13.40
2019-05-25T21:33:00.910Z,13.30
2019-05-25T21:35:37.726Z,13.30
2019-05-25T21:38:07.332Z,13.20
2019-05-25T21:40:43.417Z,13.20
2019-05-25T21:43:12.963Z,13.10
2019-05-25T21:45:48.578Z,13.00
2019-05-25T21:48:18.176Z,12.80
2019-05-25T21:50:54.282Z,12.80
2019-05-25T21:53:23.953Z,12.60
2019-05-25T21:55:53.500Z,12.60
2019-05-25T21:58:29.706Z,12.50
2019-05-25T22:01:13.548Z,12.50
2019-05-25T22:03:43.226Z,12.40
2019-05-25T22:06:24.371Z,12.40
2019-05-25T22:08:51.018Z,12.30
2019-05-25T22:11:27.309Z,12.20
2019-05-25T22:13:56.840Z,12.20
2019-05-25T22:16:32.898Z,12.10
2019-05-25T22:19:09.418Z,12.10
2019-05-25T22:21:39.007Z,12.00
2019-05-25T22:24:15.439Z,11.90
2019-05-25T22:26:44.952Z,11.80
2019-05-25T22:29:23.919Z,11.70
2019-05-25T22:31:56.193Z,11.50
2019-05-25T22:34:32.742Z,11.40
2019-05-25T22:37:02.191Z,11.40
2019-05-25T22:39:38.606Z,11.40
2019-05-25T22:42:14.674Z,11.40
2019-05-25T22:44:51.038Z,11.30
2019-05-25T22:47:20.568Z,11.30
2019-05-25T22:50:09.474Z,11.30
2019-05-25T22:52:38.991Z,11.40
2019-05-25T22:55:22.625Z,11.40
2019-05-25T22:57:52.086Z,11.50
2019-05-25T23:00:28.642Z,11.40
2019-05-25T23:02:58.788Z,11.40
2019-05-25T23:05:34.527Z,11.40
2019-05-25T23:08:04.288Z,11.40
2019-05-25T23:10:40.559Z,11.40
2019-05-25T23:13:10.094Z,11.30
2019-05-25T23:15:45.830Z,11.30
2019-05-25T23:18:28.308Z,11.40
2019-05-25T23:20:57.764Z,11.40
2019-05-25T23:23:34.162Z,11.40
2019-05-25T23:26:03.636Z,11.30
2019-05-25T23:28:40.193Z,11.30
2019-05-25T23:31:09.667Z,11.40
2019-05-25T23:33:45.402Z,11.40
2019-05-25T23:36:14.850Z,11.40
2019-05-25T23:38:51.165Z,11.30
2019-05-25T23:41:27.029Z,11.30
2019-05-25T23:44:03.432Z,11.30
2019-05-25T23:46:32.969Z,11.30
2019-05-25T23:49:16.530Z,11.20
2019-05-25T23:51:46.124Z,11.20
2019-05-25T23:54:28.778Z,11.20
2019-05-25T23:56:58.311Z,11.10
2019-05-25T23:59:27.914Z,11.10
